createdAt,value
2023-05-21T00:01:07.855Z,20.13
2023-05-21T00:06:03.826Z,19.55
2023-05-21T00:08:31.035Z,22.48
2023-05-21T00:10:57.770Z,22.02
2023-05-21T00:13:24.465Z,21.92
2023-05-21T00:15:51.282Z,20.77
2023-05-21T00:18:18.224Z,21.50
2023-05-21T00:20:45.863Z,19.67
2023-05-21T00:23:12.675Z,19.65
2023-05-21T00:25:39.424Z,20.90
2023-05-21T00:28:06.144Z,20.17
2023-05-21T00:30:32.921Z,21.73
2023-05-21T00:33:02.500Z,19.27
2023-05-21T00:35:29.438Z,27.13
2023-05-21T00:37:56.453Z,22.15
2023-05-21T00:40:23.267Z,20.75
2023-05-21T00:42:50.118Z,20.27
2023-05-21T00:45:16.864Z,20.77
2023-05-21T00:47:44.195Z,21.55
2023-05-21T00:50:12.012Z,20.95
2023-05-21T00:52:42.037Z,20.63
2023-05-21T00:55:09.976Z,25.35
2023-05-21T00:57:37.290Z,22.95
2023-05-21T01:00:08.690Z,19.23
2023-05-21T01:02:37.231Z,20.50
2023-05-21T01:05:06.058Z,19.00
2023-05-21T01:07:34.845Z,20.80
2023-05-21T01:10:06.566Z,19.77
2023-05-21T01:12:34.788Z,21.33
2023-05-21T01:15:05.743Z,23.83
2023-05-21T01:17:34.288Z,20.50
2023-05-21T01:20:01.709Z,21.27
2023-05-21T01:22:32.312Z,20.95
2023-05-21T01:25:02.694Z,21.50
2023-05-21T01:27:29.461Z,21.98
2023-05-21T01:29:57.093Z,19.35
2023-05-21T01:32:42.532Z,17.48
2023-05-21T01:35:13.289Z,21.88
2023-05-21T01:37:55.807Z,20.55
2023-05-21T01:40:50.035Z,19.40
2023-05-21T01:43:18.257Z,20.83
2023-05-21T01:45:46.425Z,20.42
2023-05-21T01:48:13.363Z,22.30
2023-05-21T01:50:41.688Z,18.33
2023-05-21T01:53:08.365Z,19.58
2023-05-21T01:55:35.817Z,20.08
2023-05-21T01:58:02.838Z,20.33
2023-05-21T02:00:30.885Z,19.30
2023-05-21T02:02:58.666Z,20.88
2023-05-21T02:05:25.787Z,21.08
2023-05-21T02:07:52.733Z,20.95
2023-05-21T02:10:19.713Z,23.08
2023-05-21T02:12:46.590Z,17.95
2023-05-21T02:15:18.041Z,22.45
2023-05-21T02:17:51.383Z,17.48
2023-05-21T02:20:18.499Z,19.10
2023-05-21T02:22:47.024Z,17.55
2023-05-21T02:25:16.326Z,20.38
2023-05-21T02:27:43.788Z,18.85
2023-05-21T02:30:12.351Z,17.63
2023-05-21T02:32:42.823Z,21.17
2023-05-21T02:35:11.596Z,22.08
2023-05-21T02:37:40.387Z,20.60
2023-05-21T02:40:08.116Z,22.05
2023-05-21T02:42:36.610Z,16.95
2023-05-21T02:45:03.802Z,18.35
2023-05-21T02:47:30.572Z,20.27
2023-05-21T02:50:00.210Z,18.08
2023-05-21T02:54:53.889Z,20.05
2023-05-21T02:57:20.892Z,20.77
2023-05-21T02:59:47.525Z,19.50
2023-05-21T03:02:14.273Z,18.48
2023-05-21T03:04:46.369Z,20.70
2023-05-21T03:07:20.298Z,22.13
2023-05-21T03:09:47.255Z,20.58
2023-05-21T03:12:13.981Z,17.75
2023-05-21T03:14:44.004Z,18.48
2023-05-21T03:17:14.030Z,20.73
2023-05-21T03:19:41.926Z,17.65
2023-05-21T03:22:09.360Z,19.27
2023-05-21T03:24:36.946Z,18.65
2023-05-21T03:27:06.319Z,18.90
2023-05-21T03:29:33.669Z,17.85
2023-05-21T03:32:01.248Z,17.52
2023-05-21T03:34:28.055Z,16.90
2023-05-21T03:36:54.722Z,19.92
2023-05-21T03:39:21.390Z,20.27
2023-05-21T03:41:48.083Z,16.83
2023-05-21T03:44:14.725Z,18.25
2023-05-21T03:46:42.467Z,19.30
2023-05-21T03:49:09.201Z,20.58
2023-05-21T03:51:36.011Z,18.30
2023-05-21T03:54:02.675Z,17.75
2023-05-21T03:56:29.308Z,15.25
2023-05-21T03:58:56.126Z,18.77
2023-05-21T04:01:22.842Z,19.38
2023-05-21T04:03:49.759Z,19.40
2023-05-21T04:06:16.933Z,16.85
2023-05-21T04:08:44.466Z,20.48
2023-05-21T04:11:11.238Z,18.00
2023-05-21T04:13:38.809Z,17.95
2023-05-21T04:16:09.103Z,18.98
2023-05-21T04:18:36.732Z,19.95
2023-05-21T04:21:03.624Z,16.58
2023-05-21T04:23:30.261Z,18.35
2023-05-21T04:25:56.990Z,15.93
2023-05-21T04:28:24.046Z,16.23
2023-05-21T04:30:50.777Z,15.48
2023-05-21T04:33:18.224Z,16.80
2023-05-21T04:35:49.854Z,19.63
2023-05-21T04:38:20.235Z,18.40
2023-05-21T04:40:50.855Z,18.60
2023-05-21T04:43:17.811Z,19.30
2023-05-21T04:45:45.030Z,17.75
2023-05-21T04:48:12.588Z,17.27
2023-05-21T04:50:41.679Z,16.17
2023-05-21T04:53:08.865Z,17.90
2023-05-21T04:55:39.697Z,20.80
2023-05-21T04:58:07.286Z,16.83
2023-05-21T05:00:34.420Z,16.85
2023-05-21T05:03:01.258Z,15.93
2023-05-21T05:05:27.973Z,20.92
2023-05-21T05:07:54.742Z,17.92
2023-05-21T05:10:21.513Z,19.92
2023-05-21T05:12:48.800Z,15.00
2023-05-21T05:15:16.071Z,16.63
2023-05-21T05:17:42.762Z,19.60
2023-05-21T05:20:11.088Z,19.25
2023-05-21T05:22:37.934Z,18.10
2023-05-21T05:25:05.294Z,20.33
2023-05-21T05:27:31.906Z,15.55
2023-05-21T05:29:58.545Z,16.45
2023-05-21T05:32:25.361Z,17.90
2023-05-21T05:34:52.097Z,17.38
2023-05-21T05:37:18.731Z,15.65
2023-05-21T05:39:45.363Z,15.35
2023-05-21T05:42:12.060Z,16.38
2023-05-21T05:44:38.684Z,15.02
2023-05-21T05:47:09.139Z,17.90
2023-05-21T05:49:36.399Z,15.48
2023-05-21T05:52:03.440Z,17.63
2023-05-21T05:54:30.064Z,16.10
2023-05-21T05:56:56.702Z,16.00
2023-05-21T05:59:23.497Z,17.73
2023-05-21T06:01:50.298Z,19.10
2023-05-21T06:04:17.000Z,18.92
2023-05-21T06:06:43.663Z,16.02
2023-05-21T06:09:10.408Z,14.25
2023-05-21T06:11:37.066Z,15.70
2023-05-21T06:14:03.716Z,16.05
2023-05-21T06:16:33.912Z,14.68
2023-05-21T06:19:01.119Z,14.98
2023-05-21T06:21:27.818Z,15.85
2023-05-21T06:23:54.545Z,15.25
2023-05-21T06:26:21.901Z,16.92
2023-05-21T06:28:49.230Z,15.07
2023-05-21T06:31:16.406Z,19.17
2023-05-21T06:33:43.330Z,19.02
2023-05-21T06:36:10.108Z,16.92
2023-05-21T06:38:36.962Z,19.08
2023-05-21T06:41:04.216Z,16.73
2023-05-21T06:43:30.989Z,16.63
2023-05-21T06:45:57.763Z,14.70
2023-05-21T06:48:24.525Z,16.25
2023-05-21T06:50:51.200Z,16.00
2023-05-21T06:53:17.993Z,15.60
2023-05-21T06:55:45.097Z,16.42
2023-05-21T06:58:12.021Z,16.95
2023-05-21T07:00:38.763Z,15.55
2023-05-21T07:03:05.773Z,15.52
2023-05-21T07:05:32.625Z,18.08
2023-05-21T07:07:59.366Z,15.88
2023-05-21T07:10:26.109Z,15.52
2023-05-21T07:12:52.787Z,15.82
2023-05-21T07:15:19.529Z,14.88
2023-05-21T07:17:46.386Z,15.93
2023-05-21T07:20:13.742Z,18.90
2023-05-21T07:22:42.929Z,15.02
2023-05-21T07:25:09.789Z,17.60
2023-05-21T07:27:36.591Z,15.27
2023-05-21T07:30:03.626Z,15.10
2023-05-21T07:32:30.485Z,15.50
2023-05-21T07:35:01.903Z,15.45
2023-05-21T07:37:28.649Z,20.95
2023-05-21T07:39:58.145Z,15.77
2023-05-21T07:42:25.733Z,21.83
2023-05-21T07:44:52.558Z,15.27
2023-05-21T07:47:19.224Z,20.45
2023-05-21T07:49:45.946Z,15.40
2023-05-21T07:52:12.690Z,15.48
2023-05-21T07:54:39.370Z,17.13
2023-05-21T07:57:06.150Z,15.50
2023-05-21T07:59:33.608Z,15.10
2023-05-21T08:02:00.364Z,15.02
2023-05-21T08:04:27.160Z,17.67
2023-05-21T08:06:53.935Z,19.10
2023-05-21T08:09:20.581Z,16.92
2023-05-21T08:11:47.330Z,18.25
2023-05-21T08:14:14.054Z,15.52
2023-05-21T08:16:40.874Z,15.13
2023-05-21T08:19:07.647Z,17.58
2023-05-21T08:21:34.707Z,15.60
2023-05-21T08:24:02.765Z,15.23
2023-05-21T08:26:29.463Z,14.38
2023-05-21T08:28:56.494Z,15.05
2023-05-21T08:31:23.263Z,15.10
2023-05-21T08:33:54.213Z,15.32
2023-05-21T08:36:21.272Z,14.15
2023-05-21T08:38:48.140Z,14.98
2023-05-21T08:41:16.598Z,15.85
2023-05-21T08:43:46.829Z,15.00
2023-05-21T08:46:16.948Z,17.83
2023-05-21T08:48:44.361Z,15.68
2023-05-21T08:51:11.147Z,14.25
2023-05-21T08:53:37.985Z,17.02
2023-05-21T08:56:06.656Z,14.80
2023-05-21T08:58:33.791Z,14.03
2023-05-21T09:01:00.648Z,13.88
2023-05-21T09:03:29.380Z,14.38
2023-05-21T09:05:57.440Z,14.25
2023-05-21T09:08:34.985Z,15.10
2023-05-21T09:11:03.556Z,13.38
2023-05-21T09:13:31.619Z,13.10
2023-05-21T09:15:59.359Z,12.32
2023-05-21T09:18:27.663Z,11.73
2023-05-21T09:20:56.538Z,12.55
2023-05-21T09:23:23.333Z,15.40
2023-05-21T09:25:52.046Z,13.20
2023-05-21T09:28:19.578Z,13.05
2023-05-21T09:30:48.250Z,13.70
2023-05-21T09:33:25.837Z,13.68
2023-05-21T09:35:52.578Z,13.20
2023-05-21T09:38:23.652Z,12.32
2023-05-21T09:40:50.466Z,13.60
2023-05-21T09:43:17.471Z,12.13
2023-05-21T09:45:54.944Z,12.55
2023-05-21T09:48:44.133Z,15.00
2023-05-21T09:51:13.456Z,12.27
2023-05-21T09:53:54.819Z,11.95
2023-05-21T09:56:24.665Z,12.50
2023-05-21T09:59:00.401Z,13.23
2023-05-21T10:01:28.453Z,12.13
2023-05-21T10:03:57.192Z,12.73
2023-05-21T10:06:29.505Z,13.15
2023-05-21T10:08:57.751Z,12.43
2023-05-21T10:11:27.386Z,13.50
2023-05-21T10:14:07.250Z,12.55
2023-05-21T10:16:35.814Z,12.43
2023-05-21T10:19:03.356Z,12.20
2023-05-21T10:21:31.836Z,12.93
2023-05-21T10:23:58.697Z,12.85
2023-05-21T10:26:26.330Z,11.70
2023-05-21T10:28:55.102Z,12.27
2023-05-21T10:31:23.406Z,11.90
2023-05-21T10:33:54.784Z,12.20
2023-05-21T10:36:24.529Z,12.25
2023-05-21T10:38:51.585Z,12.90
2023-05-21T10:41:20.909Z,13.38
2023-05-21T10:44:29.861Z,12.77
2023-05-21T10:47:02.500Z,12.27
2023-05-21T10:49:54.698Z,12.15
2023-05-21T10:52:35.461Z,14.43
2023-05-21T10:55:28.374Z,12.27
2023-05-21T10:58:11.407Z,13.35
2023-05-21T11:00:38.828Z,12.48
2023-05-21T11:03:06.839Z,12.38
2023-05-21T11:05:54.333Z,12.55
2023-05-21T11:08:33.599Z,11.80
2023-05-21T11:11:00.715Z,11.05
2023-05-21T11:13:31.335Z,12.23
2023-05-21T11:15:58.204Z,12.02
2023-05-21T11:18:30.917Z,11.25
2023-05-21T11:21:11.073Z,11.18
2023-05-21T11:24:01.156Z,11.50
2023-05-21T11:26:30.393Z,12.48
2023-05-21T11:29:09.325Z,10.68
2023-05-21T11:34:32.715Z,11.13
2023-05-21T11:37:17.688Z,12.38
2023-05-21T11:39:48.612Z,12.32
2023-05-21T11:42:28.647Z,10.68
2023-05-21T11:45:00.503Z,11.02
2023-05-21T11:47:29.126Z,11.80
2023-05-21T11:49:57.144Z,9.60
2023-05-21T11:52:23.994Z,10.93
2023-05-21T11:54:56.705Z,10.50
2023-05-21T11:57:26.696Z,11.73
2023-05-21T11:59:53.362Z,11.57
2023-05-21T12:02:22.070Z,12.07
2023-05-21T12:04:50.458Z,10.40
2023-05-21T12:07:19.203Z,10.67
2023-05-21T12:09:49.474Z,11.15
2023-05-21T12:12:21.493Z,10.93
2023-05-21T12:14:52.070Z,10.80
2023-05-21T12:17:24.595Z,10.18
2023-05-21T12:19:53.522Z,10.18
2023-05-21T12:22:20.730Z,10.35
2023-05-21T12:24:48.826Z,11.57
2023-05-21T12:27:16.802Z,9.27
2023-05-21T12:29:45.504Z,9.97
2023-05-21T12:32:16.197Z,9.98
2023-05-21T12:34:47.030Z,9.20
2023-05-21T12:37:20.278Z,10.23
2023-05-21T12:39:55.747Z,11.73
2023-05-21T12:42:27.379Z,12.05
2023-05-21T12:44:54.344Z,9.48
2023-05-21T12:47:25.178Z,10.57
2023-05-21T12:49:55.490Z,9.60
2023-05-21T12:52:23.256Z,10.18
2023-05-21T12:54:51.978Z,8.80
2023-05-21T12:57:25.775Z,11.90
2023-05-21T12:59:53.483Z,10.45
2023-05-21T13:02:23.826Z,11.25
2023-05-21T13:05:04.992Z,10.23
2023-05-21T13:07:33.751Z,10.60
2023-05-21T13:12:29.796Z,10.23
2023-05-21T13:14:58.579Z,9.68
2023-05-21T13:20:23.763Z,9.60
2023-05-21T13:22:52.096Z,9.82
2023-05-21T13:25:21.793Z,9.80
2023-05-21T13:27:49.834Z,10.45
2023-05-21T13:30:16.713Z,11.10
2023-05-21T13:32:43.495Z,15.13
2023-05-21T13:35:12.006Z,10.48
2023-05-21T13:37:42.013Z,10.32
2023-05-21T13:40:16.943Z,11.57
2023-05-21T13:42:45.452Z,10.70
2023-05-21T13:45:14.972Z,9.80
2023-05-21T13:47:43.286Z,10.90
2023-05-21T13:50:10.793Z,9.60
2023-05-21T13:52:38.287Z,10.38
2023-05-21T13:55:06.031Z,10.60
2023-05-21T13:57:32.724Z,11.15
2023-05-21T13:59:59.800Z,9.98
2023-05-21T14:02:26.981Z,10.68
2023-05-21T14:04:53.938Z,10.23
2023-05-21T14:07:21.541Z,8.85
2023-05-21T14:09:48.600Z,10.02
2023-05-21T14:12:15.863Z,9.75
2023-05-21T14:14:42.735Z,9.77
2023-05-21T14:17:09.532Z,9.45
2023-05-21T14:19:36.350Z,11.07
2023-05-21T14:22:02.995Z,11.30
2023-05-21T14:24:29.710Z,10.32
2023-05-21T14:26:56.477Z,9.70
2023-05-21T14:29:23.376Z,10.63
2023-05-21T14:31:50.095Z,11.85
2023-05-21T14:34:16.918Z,9.88
2023-05-21T14:36:43.744Z,10.40
2023-05-21T14:39:10.606Z,10.05
2023-05-21T14:41:39.552Z,9.82
2023-05-21T14:44:06.277Z,11.45
2023-05-21T14:46:33.158Z,10.25
2023-05-21T14:49:00.684Z,9.73
2023-05-21T14:51:27.429Z,11.98
2023-05-21T14:53:54.329Z,10.77
2023-05-21T14:56:22.915Z,9.77
2023-05-21T14:58:49.646Z,11.27
2023-05-21T15:01:16.506Z,9.75
2023-05-21T15:03:43.281Z,10.00
2023-05-21T15:06:10.197Z,10.93
2023-05-21T15:08:36.829Z,8.77
2023-05-21T15:11:03.567Z,10.63
2023-05-21T15:13:30.517Z,9.43
2023-05-21T15:15:57.505Z,9.27
2023-05-21T15:18:24.823Z,10.77
2023-05-21T15:20:51.876Z,8.93
2023-05-21T15:23:18.694Z,11.27
2023-05-21T15:25:45.935Z,9.93
2023-05-21T15:28:12.944Z,9.73
2023-05-21T15:30:40.093Z,9.82
2023-05-21T15:33:06.733Z,16.02
2023-05-21T15:35:34.626Z,8.77
2023-05-21T15:38:01.599Z,9.77
2023-05-21T15:40:28.254Z,10.05
2023-05-21T15:42:54.927Z,46.53
2023-05-21T15:45:21.674Z,11.23
2023-05-21T15:47:48.770Z,9.38
2023-05-21T15:50:15.913Z,10.55
2023-05-21T15:52:42.966Z,10.30
2023-05-21T15:55:09.942Z,10.27
2023-05-21T15:57:36.598Z,9.38
2023-05-21T16:00:04.867Z,12.38
2023-05-21T16:02:31.735Z,9.30
2023-05-21T16:04:58.550Z,9.57
2023-05-21T16:07:25.405Z,13.32
2023-05-21T16:09:52.116Z,9.43
2023-05-21T16:12:18.863Z,11.38
2023-05-21T16:14:49.946Z,11.07
2023-05-21T16:17:17.071Z,9.55
2023-05-21T16:19:43.892Z,11.05
2023-05-21T16:22:11.037Z,10.48
2023-05-21T16:24:38.012Z,9.65
2023-05-21T16:27:05.028Z,9.55
2023-05-21T16:29:32.180Z,10.48
2023-05-21T16:31:58.933Z,14.10
2023-05-21T16:34:25.913Z,9.23
2023-05-21T16:36:52.914Z,9.85
2023-05-21T16:39:19.903Z,8.85
2023-05-21T16:41:46.685Z,9.88
2023-05-21T16:44:14.375Z,9.30
2023-05-21T16:46:41.277Z,9.60
2023-05-21T16:49:08.065Z,11.00
2023-05-21T16:51:34.862Z,11.55
2023-05-21T16:54:04.309Z,9.30
2023-05-21T16:56:31.796Z,9.27
2023-05-21T16:58:58.522Z,9.23
2023-05-21T17:01:25.422Z,9.40
2023-05-21T17:03:52.657Z,10.10
2023-05-21T17:06:20.040Z,9.50
2023-05-21T17:08:47.317Z,9.05
2023-05-21T17:11:14.169Z,10.05
2023-05-21T17:13:40.990Z,10.35
2023-05-21T17:16:07.878Z,9.63
2023-05-21T17:18:34.827Z,12.20
2023-05-21T17:21:01.734Z,9.57
2023-05-21T17:23:28.390Z,9.85
2023-05-21T17:25:55.118Z,8.80
2023-05-21T17:28:21.750Z,8.30
2023-05-21T17:30:49.628Z,12.80
2023-05-21T17:33:16.739Z,11.63
2023-05-21T17:35:43.502Z,15.68
2023-05-21T17:38:10.429Z,8.68
2023-05-21T17:40:37.371Z,9.50
2023-05-21T17:43:05.054Z,9.13
2023-05-21T17:45:31.981Z,9.85
2023-05-21T17:48:00.461Z,10.18
2023-05-21T17:50:27.758Z,9.27
2023-05-21T17:52:54.568Z,9.02
2023-05-21T17:55:21.331Z,10.32
2023-05-21T17:57:48.068Z,9.98
2023-05-21T18:00:14.927Z,9.43
2023-05-21T18:02:41.634Z,10.13
2023-05-21T18:05:08.607Z,10.20
2023-05-21T18:07:35.710Z,10.23
2023-05-21T18:10:02.355Z,10.23
2023-05-21T18:12:29.145Z,11.98
2023-05-21T18:14:55.967Z,10.68
2023-05-21T18:17:22.758Z,10.80
2023-05-21T18:19:50.468Z,9.93
2023-05-21T18:22:17.183Z,11.00
2023-05-21T18:24:44.064Z,9.80
2023-05-21T18:27:12.200Z,10.40
2023-05-21T18:29:38.819Z,11.57
2023-05-21T18:32:05.813Z,11.18
2023-05-21T18:34:32.568Z,11.25
2023-05-21T18:36:59.264Z,10.55
2023-05-21T18:39:27.753Z,10.98
2023-05-21T18:42:11.589Z,10.07
2023-05-21T18:44:39.906Z,10.35
2023-05-21T18:47:07.749Z,11.55
2023-05-21T18:49:35.790Z,10.68
2023-05-21T18:52:03.106Z,10.73
2023-05-21T18:54:29.727Z,10.52
2023-05-21T18:56:59.609Z,10.57
2023-05-21T18:59:27.193Z,11.45
2023-05-21T19:01:54.799Z,10.93
2023-05-21T19:04:21.619Z,10.82
2023-05-21T19:06:48.277Z,9.90
2023-05-21T19:09:14.984Z,9.98
2023-05-21T19:11:41.719Z,10.30
2023-05-21T19:14:08.476Z,10.88
2023-05-21T19:16:35.245Z,9.68
2023-05-21T19:19:03.122Z,9.93
2023-05-21T19:21:30.014Z,12.50
2023-05-21T19:23:56.759Z,9.90
2023-05-21T19:26:23.672Z,11.55
2023-05-21T19:28:53.207Z,14.07
2023-05-21T19:31:20.709Z,9.57
2023-05-21T19:33:47.480Z,13.52
2023-05-21T19:36:14.493Z,10.15
2023-05-21T19:38:50.793Z,10.25
2023-05-21T19:41:18.828Z,11.88
2023-05-21T19:43:46.209Z,35.97
2023-05-21T19:46:13.902Z,20.00
2023-05-21T19:48:41.598Z,28.65
2023-05-21T19:51:08.357Z,13.00
2023-05-21T19:53:35.201Z,11.50
2023-05-21T19:56:02.011Z,16.35
2023-05-21T19:58:30.346Z,13.73
2023-05-21T20:01:00.250Z,15.27
2023-05-21T20:03:27.993Z,22.30
2023-05-21T20:05:54.797Z,13.25
2023-05-21T20:08:21.940Z,10.75
2023-05-21T20:10:51.425Z,12.15
2023-05-21T20:13:19.021Z,12.20
2023-05-21T20:15:45.766Z,11.15
2023-05-21T20:18:12.759Z,13.48
2023-05-21T20:20:41.424Z,14.30
2023-05-21T20:23:08.594Z,11.45
2023-05-21T20:25:35.323Z,13.00
2023-05-21T20:28:03.324Z,12.25
2023-05-21T20:30:35.039Z,15.98
2023-05-21T20:33:02.797Z,17.15
2023-05-21T20:35:29.898Z,16.52
2023-05-21T20:37:56.669Z,12.88
2023-05-21T20:40:23.427Z,13.23
2023-05-21T20:42:51.914Z,11.45
2023-05-21T20:45:18.686Z,10.63
2023-05-21T20:47:45.512Z,10.68
2023-05-21T20:50:12.258Z,10.65
2023-05-21T20:52:39.080Z,12.35
2023-05-21T20:55:06.218Z,11.65
2023-05-21T20:57:33.100Z,11.60
2023-05-21T20:59:59.845Z,12.50
2023-05-21T21:02:26.932Z,13.23
2023-05-21T21:04:53.762Z,13.30
2023-05-21T21:07:20.579Z,14.07
2023-05-21T21:09:48.406Z,11.52
2023-05-21T21:12:25.818Z,12.50
2023-05-21T21:14:53.954Z,11.73
2023-05-21T21:17:20.996Z,12.48
2023-05-21T21:19:47.746Z,12.60
2023-05-21T21:22:16.164Z,11.75
2023-05-21T21:24:42.818Z,11.07
2023-05-21T21:27:09.731Z,13.60
2023-05-21T21:29:36.445Z,14.18
2023-05-21T21:32:03.234Z,11.15
2023-05-21T21:34:29.875Z,11.63
2023-05-21T21:36:56.511Z,11.25
2023-05-21T21:39:23.134Z,13.80
2023-05-21T21:41:49.869Z,16.50
2023-05-21T21:44:17.214Z,15.98
2023-05-21T21:46:43.887Z,12.18
2023-05-21T21:49:10.812Z,11.77
2023-05-21T21:51:37.519Z,14.82
2023-05-21T21:54:04.380Z,12.88
2023-05-21T21:56:31.207Z,11.88
2023-05-21T21:58:57.798Z,13.13
2023-05-21T22:01:24.769Z,12.93
2023-05-21T22:03:51.438Z,14.80
2023-05-21T22:06:18.151Z,19.63
2023-05-21T22:08:44.842Z,12.93
2023-05-21T22:11:11.766Z,14.05
2023-05-21T22:13:38.519Z,13.95
2023-05-21T22:16:05.606Z,15.13
2023-05-21T22:18:40.844Z,12.73
2023-05-21T22:21:14.062Z,15.05
2023-05-21T22:23:41.161Z,12.38
2023-05-21T22:26:08.816Z,14.85
2023-05-21T22:28:35.777Z,13.18
2023-05-21T22:31:02.734Z,16.30
2023-05-21T22:33:29.489Z,13.32
2023-05-21T22:35:56.808Z,14.95
2023-05-21T22:38:23.703Z,14.77
2023-05-21T22:40:50.665Z,14.60
2023-05-21T22:43:17.419Z,12.38
2023-05-21T22:45:44.375Z,12.88
2023-05-21T22:48:11.180Z,14.40
2023-05-21T22:50:39.034Z,12.15
2023-05-21T22:53:06.867Z,14.98
2023-05-21T22:55:33.555Z,12.43
2023-05-21T22:58:00.211Z,13.18
2023-05-21T23:00:27.383Z,13.27
2023-05-21T23:02:54.790Z,12.90
2023-05-21T23:05:22.138Z,12.90
2023-05-21T23:07:49.027Z,14.82
2023-05-21T23:10:15.879Z,13.18
2023-05-21T23:12:42.653Z,13.38
2023-05-21T23:15:10.100Z,12.60
2023-05-21T23:17:37.593Z,12.40
2023-05-21T23:20:05.628Z,13.57
2023-05-21T23:22:32.644Z,14.80
2023-05-21T23:24:59.344Z,11.85
2023-05-21T23:27:25.981Z,13.18
2023-05-21T23:29:52.646Z,14.77
2023-05-21T23:32:19.348Z,15.95
2023-05-21T23:34:46.351Z,16.88
2023-05-21T23:37:13.006Z,13.50
2023-05-21T23:39:39.824Z,14.07
2023-05-21T23:42:06.698Z,14.00
2023-05-21T23:44:33.402Z,13.80
2023-05-21T23:47:00.191Z,14.57
2023-05-21T23:49:26.830Z,13.73
2023-05-21T23:51:53.618Z,14.48
2023-05-21T23:54:20.316Z,15.30
2023-05-21T23:56:47.459Z,14.15
2023-05-21T23:59:16.150Z,12.18
